Time;durP1;ratioP1;P1;durP2;ratioP2;P2;SDS_P1;SDS_P2;PMS_P1;PMS_P2;Temp;Humidity;BMP_temperature;BMP_pressure;BME280_temperature;BME280_humidity;BME280_pressure;Samples;Min_cycle;Max_cycle;Signal;HPM_P1;HPM_P2
2022/09/27 00:00:03;;;;;;;5.57;4.75;;;;;;;9.29;100.00;94902.09;6176085;23;20402;-61
2022/09/27 00:02:28;;;;;;;6.88;5.03;;;;;;;9.21;100.00;94891.50;6175860;23;20066;-67
2022/09/27 00:04:54;;;;;;;5.40;5.00;;;;;;;9.15;100.00;94890.31;6175636;23;20439;-68
2022/09/27 00:07:20;;;;;;;5.32;4.70;;;;;;;9.15;100.00;94898.19;6175844;23;20009;-67
2022/09/27 00:09:45;;;;;;;5.15;4.72;;;;;;;9.16;100.00;94899.81;6175784;23;20008;-67
2022/09/27 00:12:10;;;;;;;5.22;4.78;;;;;;;9.10;100.00;94892.56;6176023;23;20339;-68
2022/09/27 00:14:36;;;;;;;5.15;4.65;;;;;;;9.08;100.00;94898.97;6173941;23;20004;-67
2022/09/27 00:17:01;;;;;;;5.93;5.32;;;;;;;9.00;100.00;94887.41;6176485;23;20017;-61
2022/09/27 00:19:26;;;;;;;5.88;4.75;;;;;;;8.94;100.00;94892.44;6177251;23;20346;-62
2022/09/27 00:21:52;;;;;;;5.15;4.65;;;;;;;8.96;100.00;94885.25;6176818;23;20005;-64
2022/09/27 00:24:20;;;;;;;3.75;3.42;;;;;;;9.02;100.00;94888.06;6176907;23;20086;-62
2022/09/27 00:26:47;;;;;;;4.75;4.35;;;;;;;9.07;100.00;94892.06;6176979;23;20024;-62
2022/09/27 00:29:14;;;;;;;4.68;4.25;;;;;;;9.10;100.00;94891.75;6177463;23;20001;-61
2022/09/27 00:31:40;;;;;;;5.40;4.90;;;;;;;9.12;100.00;94898.50;6176875;23;20068;-62
2022/09/27 00:34:07;;;;;;;5.35;4.95;;;;;;;9.11;100.00;94891.59;6176494;23;20367;-62
2022/09/27 00:36:33;;;;;;;6.45;4.70;;;;;;;9.16;100.00;94894.56;6176782;23;20471;-62
2022/09/27 00:38:59;;;;;;;6.32;4.60;;;;;;;9.19;100.00;94890.03;6177223;23;20058;-65
2022/09/27 00:41:31;;;;;;;5.55;4.32;;;;;;;9.14;100.00;94878.16;6176822;23;20485;-62
2022/09/27 00:44:00;;;;;;;5.07;4.60;;;;;;;9.09;100.00;94877.78;6176594;23;20001;-61
2022/09/27 00:46:32;;;;;;;5.20;4.68;;;;;;;9.07;100.00;94884.19;6177343;23;19997;-61
2022/09/27 00:49:04;;;;;;;4.43;4.00;;;;;;;9.06;100.00;94874.63;6176678;23;20346;-61
2022/09/27 00:51:32;;;;;;;3.70;3.40;;;;;;;9.07;100.00;94881.56;6176809;23;20001;-62
2022/09/27 00:54:00;;;;;;;3.50;3.20;;;;;;;9.09;100.00;94877.78;6176601;23;20050;-62
2022/09/27 00:56:29;;;;;;;6.55;5.97;;;;;;;9.04;100.00;94872.19;6176851;23;20454;-62
2022/09/27 00:59:02;;;;;;;10.57;9.63;;;;;;;9.06;100.00;94874.63;6176802;23;20013;-62
2022/09/27 01:01:29;;;;;;;11.70;10.60;;;;;;;9.10;100.00;94871.56;6176619;23;20466;-68
2022/09/27 01:04:07;;;;;;;11.93;9.02;;;;;;;9.15;100.00;94863.22;6176437;23;20381;-68
2022/09/27 01:06:33;;;;;;;7.50;6.97;;;;;;;9.17;100.00;94867.38;6176150;23;19997;-67
2022/09/27 01:08:59;;;;;;;8.77;8.07;;;;;;;9.12;100.00;94864.34;6176412;23;20141;-68
2022/09/27 01:11:33;;;;;;;5.78;5.38;;;;;;;9.10;100.00;94861.06;6176530;23;20050;-68
2022/09/27 01:14:52;;;;;;;5.25;4.93;;;;;;;9.12;100.00;94859.09;6176727;23;20003;-67
2022/09/27 01:17:29;;;;;;;7.65;5.78;;;;;;;9.11;100.00;94867.16;6101701;23;20584;-62
2022/09/27 01:20:32;;;;;;;7.63;6.93;;;;;;;9.06;100.00;94870.22;6208272;23;20431;-68
2022/09/27 01:23:03;;;;;;;6.63;6.22;;;;;;;9.06;100.00;94858.88;6161142;23;20335;-67
2022/09/27 01:25:40;;;;;;;6.90;6.40;;;;;;;9.01;100.00;94854.13;6147621;22;20368;-67
2022/09/27 01:28:20;;;;;;;11.35;10.43;;;;;;;8.95;100.00;94855.53;6148174;22;20006;-67
2022/09/27 01:31:08;;;;;;;17.27;15.88;;;;;;;9.01;100.00;94846.22;6147926;23;20052;-66
2022/09/27 01:33:46;;;;;;;19.65;17.92;;;;;;;9.02;100.00;94851.31;6148150;23;20008;-67
2022/09/27 01:36:28;;;;;;;17.67;16.08;;;;;;;8.98;100.00;94836.03;6148149;22;19998;-62
2022/09/27 01:39:29;;;;;;;8.43;7.65;;;;;;;8.93;100.00;94838.28;6147358;22;20008;-61
2022/09/27 01:42:13;;;;;;;8.85;8.15;;;;;;;8.95;100.00;94841.56;6144739;23;20008;-61
2022/09/27 01:44:53;;;;;;;5.85;4.65;;;;;;;9.08;100.00;94834.13;6147858;23;20014;-61
2022/09/27 01:47:21;;;;;;;4.88;3.63;;;;;;;9.07;100.00;94816.72;6147952;23;20061;-62
2022/09/27 01:49:58;;;;;;;4.22;3.83;;;;;;;9.09;100.00;94812.16;6148288;23;20390;-61
2022/09/27 01:52:30;;;;;;;4.40;3.97;;;;;;;9.08;100.00;94810.50;6148448;23;19997;-62
2022/09/27 01:55:00;;;;;;;2.83;2.50;;;;;;;9.06;100.00;94801.13;6147927;23;20001;-68
2022/09/27 01:57:32;;;;;;;3.22;2.63;;;;;;;9.02;100.00;94790.94;6147998;23;20440;-67
2022/09/27 02:00:06;;;;;;;4.57;2.90;;;;;;;9.00;100.00;94781.56;6148214;23;20010;-68
2022/09/27 02:02:36;;;;;;;2.88;2.67;;;;;;;8.94;100.00;94769.03;6121529;23;19997;-68
2022/09/27 02:05:06;;;;;;;2.58;2.47;;;;;;;8.92;100.00;94776.25;6147703;23;20001;-67
2022/09/27 02:07:51;;;;;;;3.08;2.60;;;;;;;8.86;100.00;94778.53;6147681;23;20058;-67
2022/09/27 02:10:22;;;;;;;2.83;2.63;;;;;;;8.85;100.00;94771.63;6147625;23;20001;-67
2022/09/27 02:13:18;;;;;;;4.50;2.95;;;;;;;8.85;100.00;94774.25;6148034;23;20350;-67
2022/09/27 02:15:55;;;;;;;3.78;3.47;;;;;;;8.87;100.00;94774.91;6147621;23;20463;-67
2022/09/27 02:18:33;;;;;;;3.80;3.50;;;;;;;8.82;100.00;94771.09;6169088;23;20446;-68
2022/09/27 02:21:03;;;;;;;3.83;3.53;;;;;;;8.82;100.00;94777.19;6177813;23;20528;-67
2022/09/27 02:23:58;;;;;;;3.80;3.45;;;;;;;8.91;100.00;94792.97;6177337;23;20001;-67
2022/09/27 02:26:31;;;;;;;4.18;3.88;;;;;;;8.91;100.00;94793.81;6178184;23;20012;-68
2022/09/27 02:29:05;;;;;;;4.90;3.80;;;;;;;8.88;100.00;94794.94;6176892;23;20001;-68
2022/09/27 02:31:30;;;;;;;4.18;3.78;;;;;;;8.93;100.00;94798.91;6151466;23;20016;-68
2022/09/27 02:34:24;;;;;;;3.30;2.83;;;;;;;8.91;100.00;94808.72;6177490;23;19997;-68
2022/09/27 02:36:52;;;;;;;2.70;2.30;;;;;;;8.88;100.00;94815.94;6175616;23;20032;-58
2022/09/27 02:39:18;;;;;;;2.92;2.72;;;;;;;8.88;100.00;94823.81;6178589;23;20054;-59
2022/09/27 02:41:44;;;;;;;3.83;2.60;;;;;;;8.79;100.00;94824.75;6177535;23;20004;-58
2022/09/27 02:44:13;;;;;;;3.90;2.95;;;;;;;8.74;100.00;94829.63;6177361;23;20001;-58
2022/09/27 02:46:57;;;;;;;3.47;2.75;;;;;;;8.77;100.00;94841.59;6177742;23;20012;-58
2022/09/27 02:49:38;;;;;;;3.45;3.05;;;;;;;8.68;100.00;94845.97;6177375;23;19997;-58
2022/09/27 02:52:40;;;;;;;4.63;3.42;;;;;;;8.66;100.00;94843.50;6177526;23;20620;-62
2022/09/27 02:55:59;;;;;;;3.88;3.45;;;;;;;8.60;100.00;94850.16;6177432;23;20001;-69
2022/09/27 02:58:46;;;;;;;2.80;2.70;;;;;;;8.64;100.00;94845.47;6179334;23;20024;-69
2022/09/27 03:01:13;;;;;;;3.25;2.95;;;;;;;8.62;100.00;94846.56;6177035;23;20048;-69
2022/09/27 03:04:03;;;;;;;3.03;2.72;;;;;;;8.65;100.00;94856.75;6177209;23;20009;-69
2022/09/27 03:06:30;;;;;;;2.75;2.53;;;;;;;8.68;100.00;94865.16;6151201;23;20041;-69
2022/09/27 03:08:56;;;;;;;2.60;2.40;;;;;;;8.77;100.00;94865.22;6177568;23;20023;-69
2022/09/27 03:11:21;;;;;;;2.47;2.38;;;;;;;8.73;100.00;94857.66;6177525;23;20681;-66
2022/09/27 03:13:46;;;;;;;2.28;2.17;;;;;;;8.73;100.00;94859.44;6177124;23;20004;-67
2022/09/27 03:16:14;;;;;;;2.40;2.30;;;;;;;8.72;100.00;94871.75;6177188;23;20449;-68
2022/09/27 03:18:40;;;;;;;2.20;2.10;;;;;;;8.72;100.00;94878.78;6177249;23;20087;-67
2022/09/27 03:21:05;;;;;;;2.13;2.03;;;;;;;8.78;100.00;94887.88;6177485;23;20039;-68
2022/09/27 03:23:31;;;;;;;2.05;1.95;;;;;;;8.76;100.00;94882.78;6177754;23;20008;-67
2022/09/27 03:25:56;;;;;;;1.75;1.67;;;;;;;8.74;100.00;94888.19;6177281;23;20393;-68
2022/09/27 03:28:22;;;;;;;2.45;1.85;;;;;;;8.75;100.00;94886.38;6177408;23;20008;-68
2022/09/27 03:30:47;;;;;;;1.83;1.73;;;;;;;8.73;100.00;94889.16;6176947;23;20001;-68
2022/09/27 03:33:13;;;;;;;2.40;1.80;;;;;;;8.73;100.00;94890.94;6177262;23;20068;-62
2022/09/27 03:35:41;;;;;;;6.25;3.95;;;;;;;8.76;100.00;94889.81;6177456;23;20399;-62
2022/09/27 03:38:07;;;;;;;4.72;4.32;;;;;;;8.77;100.00;94887.06;6177502;22;20001;-62
2022/09/27 03:40:32;;;;;;;3.35;3.13;;;;;;;8.76;100.00;94895.91;6177607;23;20014;-62
2022/09/27 03:42:58;;;;;;;2.85;2.75;;;;;;;8.77;100.00;94886.22;6177204;23;20351;-61
2022/09/27 03:45:23;;;;;;;2.92;2.83;;;;;;;8.79;100.00;94890.34;6176191;23;20076;-61
2022/09/27 03:47:48;;;;;;;3.05;2.95;;;;;;;8.84;100.00;94890.72;6176959;23;20430;-61
2022/09/27 03:50:14;;;;;;;2.60;2.33;;;;;;;8.85;100.00;94883.69;6176965;23;20050;-61
2022/09/27 03:52:41;;;;;;;2.20;2.00;;;;;;;8.85;100.00;94900.25;6177351;23;20011;-68
2022/09/27 03:55:07;;;;;;;2.25;2.08;;;;;;;8.84;100.00;94901.22;6176663;23;20001;-68
2022/09/27 03:57:33;;;;;;;2.35;2.25;;;;;;;8.84;100.00;94893.34;6177569;23;20039;-69
2022/09/27 03:59:58;;;;;;;2.08;1.95;;;;;;;8.82;100.00;94902.34;6177024;23;20431;-68
2022/09/27 04:02:24;;;;;;;2.00;1.90;;;;;;;8.83;100.00;94904.81;6177427;23;20001;-68
2022/09/27 04:04:50;;;;;;;1.70;1.60;;;;;;;8.84;100.00;94897.75;6177044;23;20001;-68
2022/09/27 04:07:16;;;;;;;4.88;1.75;;;;;;;8.81;100.00;94893.66;6177124;23;20008;-68
2022/09/27 04:09:43;;;;;;;2.00;1.90;;;;;;;8.81;100.00;94893.66;6177314;23;20066;-63
2022/09/27 04:12:09;;;;;;;3.78;2.90;;;;;;;8.85;100.00;94899.44;6177236;23;20050;-67
2022/09/27 04:14:34;;;;;;;5.47;5.07;;;;;;;8.84;100.00;94903.84;6177425;23;20009;-67
2022/09/27 04:17:00;;;;;;;8.95;8.05;;;;;;;8.84;100.00;94909.09;6176857;23;20608;-66
2022/09/27 04:19:25;;;;;;;10.55;9.75;;;;;;;8.86;100.00;94906.34;6177487;22;20004;-67
2022/09/27 04:21:50;;;;;;;10.20;8.18;;;;;;;8.87;100.00;94907.97;6177077;23;20446;-67
2022/09/27 04:24:16;;;;;;;5.45;5.05;;;;;;;8.89;100.00;94903.41;6176719;23;20028;-67
2022/09/27 04:26:41;;;;;;;5.03;4.72;;;;;;;8.89;100.00;94906.84;6176309;23;20019;-67
2022/09/27 04:29:08;;;;;;;5.75;4.97;;;;;;;8.89;100.00;94908.66;6177372;23;19997;-65
2022/09/27 04:31:34;;;;;;;6.05;4.75;;;;;;;8.86;100.00;94899.28;6177601;22;20001;-60
2022/09/27 04:34:00;;;;;;;9.32;5.18;;;;;;;8.85;100.00;94899.44;6176714;23;19997;-61
2022/09/27 04:36:26;;;;;;;5.78;5.38;;;;;;;8.85;100.00;94910.75;6176884;23;20001;-61
2022/09/27 04:38:53;;;;;;;6.18;5.68;;;;;;;8.86;100.00;94906.34;6176890;23;20001;-61
2022/09/27 04:41:20;;;;;;;3.97;3.45;;;;;;;8.85;100.00;94909.94;6177126;23;19997;-61
2022/09/27 04:43:46;;;;;;;3.10;2.90;;;;;;;8.85;100.00;94904.69;6176544;23;20013;-61
2022/09/27 04:46:12;;;;;;;3.55;2.25;;;;;;;8.83;100.00;94904.81;6177085;23;20081;-61
2022/09/27 04:48:38;;;;;;;5.55;2.60;;;;;;;8.87;100.00;94908.78;6177359;22;20001;-67
2022/09/27 04:51:04;;;;;;;4.40;2.63;;;;;;;8.88;100.00;94915.69;6176801;23;20008;-64
2022/09/27 04:53:29;;;;;;;2.65;2.45;;;;;;;8.88;100.00;94914.88;6176703;23;20080;-64
2022/09/27 04:55:56;;;;;;;3.05;2.75;;;;;;;8.87;100.00;94911.41;6176558;23;20427;-65
2022/09/27 04:58:22;;;;;;;2.85;2.50;;;;;;;8.85;100.00;94910.75;6176583;23;19997;-65
2022/09/27 05:00:51;;;;;;;2.20;2.00;;;;;;;8.84;100.00;94913.50;6176917;23;20084;-64
2022/09/27 05:03:17;;;;;;;4.43;2.40;;;;;;;8.84;100.00;94914.34;6176091;23;20001;-64
2022/09/27 05:05:43;;;;;;;2.60;2.40;;;;;;;8.84;100.00;94909.09;6176943;23;20009;-65
2022/09/27 05:08:08;;;;;;;3.00;2.80;;;;;;;8.78;100.00;94904.47;6177002;23;20347;-60
2022/09/27 05:10:33;;;;;;;3.28;2.30;;;;;;;8.74;100.00;94900.50;6176874;23;20001;-61
2022/09/27 05:12:59;;;;;;;2.60;2.40;;;;;;;8.72;100.00;94903.25;6176310;23;20047;-60
2022/09/27 05:15:24;;;;;;;5.93;2.63;;;;;;;8.75;100.00;94902.13;6176873;23;20473;-61
2022/09/27 05:17:51;;;;;;;4.20;3.08;;;;;;;8.72;100.00;94905.03;6176154;23;20081;-61
2022/09/27 05:20:16;;;;;;;2.72;2.53;;;;;;;8.69;100.00;94906.19;6176765;23;20060;-61
2022/09/27 05:22:42;;;;;;;2.17;1.95;;;;;;;8.73;100.00;94918.03;6176627;23;20005;-61
2022/09/27 05:25:07;;;;;;;3.78;3.22;;;;;;;8.74;100.00;94922.28;6176145;23;20076;-61
2022/09/27 05:27:33;;;;;;;4.78;4.38;;;;;;;8.74;100.00;94929.34;6176573;23;20450;-67
2022/09/27 05:30:00;;;;;;;5.97;5.57;;;;;;;8.76;100.00;94921.31;6176876;23;19997;-66
2022/09/27 05:32:26;;;;;;;6.95;6.35;;;;;;;8.76;100.00;94924.78;6176274;23;20007;-66
2022/09/27 05:34:53;;;;;;;10.10;6.88;;;;;;;8.74;100.00;94929.34;6176844;23;20058;-66
2022/09/27 05:37:18;;;;;;;7.60;6.85;;;;;;;8.74;100.00;94929.34;6176497;23;20001;-66
2022/09/27 05:39:45;;;;;;;12.38;3.50;;;;;;;8.86;100.00;94938.63;6176384;23;20012;-66
2022/09/27 05:42:13;;;;;;;2.88;2.60;;;;;;;8.78;100.00;94928.06;6175607;23;20005;-66
2022/09/27 05:44:39;;;;;;;4.68;2.80;;;;;;;8.76;100.00;94929.19;6174729;23;20079;-62
2022/09/27 05:47:04;;;;;;;2.25;2.15;;;;;;;8.74;100.00;94931.97;6175089;23;20389;-63
2022/09/27 05:49:31;;;;;;;2.35;2.15;;;;;;;8.70;100.00;94927.97;6176639;23;20005;-62
2022/09/27 05:51:57;;;;;;;2.83;2.10;;;;;;;8.68;100.00;94928.16;6176375;23;20013;-64
2022/09/27 05:54:22;;;;;;;2.83;1.80;;;;;;;8.67;100.00;94926.50;6176527;23;20070;-63
2022/09/27 05:56:47;;;;;;;2.67;2.47;;;;;;;8.66;100.00;94937.13;6176511;23;20001;-66
2022/09/27 05:59:13;;;;;;;4.03;2.97;;;;;;;8.66;100.00;94937.97;6175651;23;20343;-68
2022/09/27 06:01:38;;;;;;;3.60;3.30;;;;;;;8.64;100.00;94946.94;6175147;23;19998;-66
2022/09/27 06:04:04;;;;;;;3.10;2.80;;;;;;;8.62;100.00;94946.28;6175749;23;20011;-63
2022/09/27 06:06:30;;;;;;;5.65;3.20;;;;;;;8.62;100.00;94941.03;6174916;22;20001;-64
2022/09/27 06:08:56;;;;;;;4.10;2.97;;;;;;;8.63;100.00;94948.75;6176222;23;20350;-61
2022/09/27 06:11:22;;;;;;;7.30;2.85;;;;;;;8.63;100.00;94954.00;6176290;22;20005;-61
2022/09/27 06:13:47;;;;;;;4.15;3.33;;;;;;;8.62;100.00;94948.91;6176803;23;20001;-60
2022/09/27 06:16:13;;;;;;;4.47;3.50;;;;;;;8.63;100.00;94947.94;6176412;23;20385;-61
2022/09/27 06:18:38;;;;;;;6.68;3.80;;;;;;;8.63;100.00;94953.19;6177246;23;20031;-61
2022/09/27 06:21:05;;;;;;;3.60;1.80;;;;;;;8.66;100.00;94947.63;6177133;23;20009;-61
2022/09/27 06:23:34;;;;;;;3.65;2.00;;;;;;;8.66;100.00;94956.34;6178093;23;20033;-60
2022/09/27 06:26:05;;;;;;;2.78;2.00;;;;;;;8.71;100.00;94948.00;6152510;23;20009;-62
2022/09/27 06:28:33;;;;;;;5.10;2.60;;;;;;;8.73;100.00;94954.75;6178316;22;20001;-61
2022/09/27 06:30:59;;;;;;;2.28;2.00;;;;;;;8.75;100.00;94957.25;6177974;23;20001;-61
2022/09/27 06:33:27;;;;;;;1.67;1.58;;;;;;;8.80;100.00;94960.25;6177627;23;20005;-61
2022/09/27 06:35:52;;;;;;;2.22;1.73;;;;;;;8.79;100.00;94963.84;6177788;23;20039;-61
2022/09/27 06:38:20;;;;;;;3.00;2.20;;;;;;;8.81;100.00;94967.16;6176698;23;20423;-61
2022/09/27 06:40:46;;;;;;;3.00;2.35;;;;;;;8.80;100.00;94954.16;6176573;23;20001;-61
2022/09/27 06:43:14;;;;;;;1.77;1.67;;;;;;;8.78;100.00;94956.09;6176239;23;20508;-60
2022/09/27 06:45:39;;;;;;;3.67;1.67;;;;;;;8.87;100.00;94960.47;6176461;22;20064;-59
2022/09/27 06:48:07;;;;;;;1.92;1.75;;;;;;;8.93;100.00;94966.91;6176587;23;20018;-68
2022/09/27 06:50:35;;;;;;;7.40;1.90;;;;;;;8.95;100.00;94965.81;6176594;23;20035;-69
2022/09/27 06:53:01;;;;;;;3.15;1.95;;;;;;;8.96;100.00;94969.25;6176370;23;20032;-68
2022/09/27 06:55:26;;;;;;;4.47;2.15;;;;;;;8.94;100.00;94969.41;6176424;23;20493;-68
2022/09/27 07:00:45;;;;;;;1.25;1.15;;;;;;;8.93;100.00;94964.28;6176325;23;20077;-68
2022/09/27 07:03:13;;;;;;;2.63;1.40;;;;;;;8.93;100.00;94969.53;6176527;23;20004;-63
2022/09/27 07:05:41;;;;;;;2.42;1.52;;;;;;;8.91;100.00;94961.00;6173635;23;20036;-61
2022/09/27 07:08:11;;;;;;;1.63;1.40;;;;;;;8.92;100.00;94958.22;6175276;23;20005;-61
2022/09/27 07:10:38;;;;;;;6.07;1.50;;;;;;;8.95;100.00;94962.34;6176366;23;20025;-61
2022/09/27 07:13:06;;;;;;;5.20;1.80;;;;;;;8.94;100.00;94966.78;6175686;23;20062;-61
2022/09/27 07:15:34;;;;;;;2.17;1.75;;;;;;;9.02;100.00;94977.34;6175923;23;20050;-61
2022/09/27 07:17:59;;;;;;;4.72;1.90;;;;;;;9.07;100.00;94976.91;6175279;23;20017;-61
2022/09/27 07:20:25;;;;;;;5.45;1.52;;;;;;;9.07;100.00;94973.47;6176037;23;20008;-61
2022/09/27 07:22:51;;;;;;;1.75;1.30;;;;;;;9.00;100.00;94975.88;6149899;22;20012;-61
2022/09/27 07:25:17;;;;;;;2.92;1.60;;;;;;;9.00;100.00;94975.88;6175878;23;20350;-67
2022/09/27 07:27:42;;;;;;;3.10;1.42;;;;;;;9.09;100.00;94980.19;6175423;23;20055;-67
2022/09/27 07:30:10;;;;;;;9.57;2.50;;;;;;;9.21;100.00;94978.16;6175843;23;20005;-67
2022/09/27 07:32:35;;;;;;;5.57;4.25;;;;;;;9.31;100.00;94991.22;6176034;23;20016;-67
2022/09/27 07:35:05;;;;;;;5.95;2.20;;;;;;;9.41;100.00;94991.16;6175723;23;20001;-67
2022/09/27 07:37:32;;;;;;;3.25;2.33;;;;;;;9.49;100.00;94990.38;6174692;23;20004;-67
2022/09/27 07:39:58;;;;;;;2.92;2.10;;;;;;;9.53;100.00;94989.09;6175975;23;20072;-57
2022/09/27 07:42:23;;;;;;;4.93;2.00;;;;;;;9.55;100.00;94984.50;6175713;23;19997;-67
2022/09/27 07:44:49;;;;;;;2.95;1.70;;;;;;;9.56;100.00;94987.00;6176128;23;20325;-61
2022/09/27 07:47:14;;;;;;;3.53;1.90;;;;;;;9.59;100.00;94989.31;6175161;23;20000;-61
2022/09/27 07:49:39;;;;;;;3.30;1.67;;;;;;;9.67;100.00;94990.34;6175753;23;20083;-61
2022/09/27 07:52:05;;;;;;;2.92;1.48;;;;;;;9.72;100.00;94985.44;6175809;23;20003;-61
2022/09/27 07:54:30;;;;;;;1.60;1.17;;;;;;;9.69;100.00;94991.00;6175893;23;20080;-61
2022/09/27 07:56:56;;;;;;;2.78;1.52;;;;;;;9.62;100.00;94989.97;6148863;23;20061;-60
2022/09/27 07:59:21;;;;;;;3.10;1.40;;;;;;;9.62;100.00;94990.81;6176146;22;20001;-61
2022/09/27 08:01:47;;;;;;;5.75;1.65;;;;;;;9.71;100.00;94987.25;6175566;23;20350;-61
2022/09/27 08:04:12;;;;;;;1.75;1.50;;;;;;;9.89;100.00;94996.91;6175912;23;20011;-56
2022/09/27 08:06:37;;;;;;;2.55;1.55;;;;;;;9.95;100.00;94993.66;6175233;23;20024;-56
2022/09/27 08:09:08;;;;;;;5.57;2.00;;;;;;;10.12;100.00;94996.38;6175433;23;20496;-56
2022/09/27 08:11:36;;;;;;;1.92;1.45;;;;;;;10.12;100.00;94986.69;6175600;23;20049;-56
2022/09/27 08:14:03;;;;;;;1.48;1.30;;;;;;;10.01;100.00;94990.41;6175658;22;20028;-56
2022/09/27 08:16:29;;;;;;;4.72;1.67;;;;;;;10.27;100.00;94994.00;6175743;22;20007;-57
2022/09/27 08:18:54;;;;;;;2.30;1.60;;;;;;;10.50;100.00;94989.03;6175527;23;20379;-61
2022/09/27 08:21:19;;;;;;;2.55;1.45;;;;;;;10.63;100.00;94993.84;6176026;23;20008;-68
2022/09/27 08:23:45;;;;;;;1.40;1.30;;;;;;;10.83;100.00;94993.56;6175395;23;20012;-67
2022/09/27 08:26:11;;;;;;;4.55;1.85;;;;;;;10.92;100.00;94989.13;6176696;23;20492;-66
2022/09/27 08:28:36;;;;;;;1.70;1.38;;;;;;;10.88;100.00;94992.09;6176363;22;20389;-67
2022/09/27 08:31:01;;;;;;;2.42;1.35;;;;;;;10.83;100.00;94996.19;6175804;23;20072;-67
2022/09/27 08:33:27;;;;;;;1.70;1.60;;;;;;;10.72;100.00;95000.78;6175129;23;19997;-67
2022/09/27 08:35:52;;;;;;;4.53;1.70;;;;;;;10.69;100.00;94995.00;6175293;23;20142;-66
2022/09/27 08:38:18;;;;;;;4.70;1.55;;;;;;;10.59;100.00;94989.88;6175019;23;20001;-61
2022/09/27 08:41:00;;;;;;;1.95;1.60;;;;;;;10.54;100.00;95000.88;6175431;23;20013;-60
2022/09/27 08:43:48;;;;;;;2.72;1.33;;;;;;;10.50;100.00;95002.19;6175442;23;20004;-55
2022/09/27 08:46:39;;;;;;;3.00;1.30;;;;;;;10.46;100.00;95000.84;6174967;23;20485;-56
2022/09/27 08:49:28;;;;;;;5.25;3.42;;;;;;;10.50;100.00;94996.94;6175293;22;20077;-56
2022/09/27 08:51:55;;;;;;;2.95;2.70;;;;;;;10.56;100.00;95000.72;6114781;23;20009;-58
2022/09/27 08:54:24;;;;;;;7.18;6.25;;;;;;;10.64;100.00;94999.94;6175155;23;20001;-55
2022/09/27 08:56:52;;;;;;;2.88;2.38;;;;;;;10.71;100.00;95004.41;6174784;23;20016;-57
2022/09/27 08:59:33;;;;;;;2.38;1.50;;;;;;;10.79;100.00;95000.97;6175188;23;20463;-69
2022/09/27 09:01:58;;;;;;;4.45;1.80;;;;;;;10.90;100.00;95013.00;6175394;23;20008;-60
2022/09/27 09:04:32;;;;;;;1.60;1.50;;;;;;;10.96;100.00;95020.25;6175435;22;20001;-60
2022/09/27 09:07:24;;;;;;;3.55;1.63;;;;;;;11.05;100.00;95015.84;6174678;23;20012;-60
2022/09/27 09:09:57;;;;;;;2.40;1.65;;;;;;;11.06;100.00;95016.69;6175463;23;20013;-60
2022/09/27 09:15:27;;;;;;;5.40;3.67;;;;;;;10.97;100.00;95016.66;6174714;23;20016;-60
2022/09/27 09:18:31;;;;;;;2.85;1.92;;;;;;;11.00;100.00;95018.94;6174480;23;20013;-62
2022/09/27 09:21:44;;;;;;;2.45;1.85;;;;;;;11.15;100.00;95008.59;6175498;23;20520;-63
2022/09/27 09:24:23;;;;;;;7.88;3.00;;;;;;;11.27;100.00;95019.69;6174665;23;20695;-63
2022/09/27 09:27:23;;;;;;;5.35;2.80;;;;;;;11.23;100.00;95028.06;6174571;23;20088;-63
2022/09/27 09:30:24;;;;;;;3.47;2.15;;;;;;;11.12;100.00;95027.38;6174991;23;20019;-63
2022/09/27 09:33:00;;;;;;;4.38;2.22;;;;;;;11.10;100.00;95031.97;6175771;23;20009;-63
2022/09/27 09:35:36;;;;;;;4.95;2.17;;;;;;;11.10;100.00;95031.97;6174606;23;19997;-63
2022/09/27 09:38:08;;;;;;;5.65;2.28;;;;;;;11.04;100.00;95037.91;6174327;23;20335;-69
2022/09/27 09:40:43;;;;;;;5.43;2.15;;;;;;;11.17;100.00;95033.00;6175734;23;20001;-67
2022/09/27 09:43:27;;;;;;;3.90;2.35;;;;;;;10.95;100.00;95030.97;6176182;23;20004;-67
2022/09/27 09:46:04;;;;;;;3.70;1.85;;;;;;;10.77;100.00;95036.34;6177730;23;20015;-67
2022/09/27 09:48:38;;;;;;;3.90;1.92;;;;;;;10.71;100.00;95037.78;6175083;23;20001;-67
2022/09/27 09:51:09;;;;;;;4.18;1.80;;;;;;;10.64;99.38;95028.88;6176123;23;20434;-67
2022/09/27 09:53:48;;;;;;;3.42;2.05;;;;;;;10.55;100.00;95041.19;6176229;22;20320;-68
2022/09/27 09:56:19;;;;;;;4.35;1.98;;;;;;;10.65;100.00;95035.78;6176264;23;20012;-60
2022/09/27 09:59:25;;;;;;;4.00;2.42;;;;;;;10.84;100.00;95030.28;6175058;23;20001;-61
2022/09/27 10:01:54;;;;;;;4.88;4.40;;;;;;;10.92;100.00;95034.75;6176095;23;20019;-61
2022/09/27 10:04:31;;;;;;;4.05;1.70;;;;;;;11.04;100.00;95038.72;6176487;23;20084;-61
2022/09/27 10:07:00;;;;;;;4.95;1.95;;;;;;;11.44;100.00;95046.03;6175477;23;20004;-61
2022/09/27 10:09:26;;;;;;;6.05;1.63;;;;;;;11.72;98.86;95043.09;6175445;23;20011;-62
2022/09/27 10:11:52;;;;;;;2.63;1.55;;;;;;;11.95;95.77;95045.06;6176554;23;20007;-60
2022/09/27 10:14:20;;;;;;;3.03;1.75;;;;;;;12.22;94.92;95041.25;6176127;23;20068;-59
2022/09/27 10:16:54;;;;;;;1.95;1.42;;;;;;;12.47;92.58;95038.53;6175494;23;20460;-62
2022/09/27 10:19:28;;;;;;;2.22;1.50;;;;;;;12.73;90.47;95037.50;6175267;23;20005;-60
2022/09/27 10:22:00;;;;;;;3.10;1.83;;;;;;;12.98;88.87;95029.44;6176694;23;20001;-60
2022/09/27 10:24:25;;;;;;;2.38;1.45;;;;;;;13.09;87.14;95026.41;6175994;23;19997;-60
2022/09/27 10:26:57;;;;;;;3.58;1.90;;;;;;;12.97;89.02;95033.91;6176423;23;20047;-60
2022/09/27 10:29:28;;;;;;;2.65;2.38;;;;;;;12.93;85.46;95031.75;6175420;23;20406;-59
2022/09/27 10:31:55;;;;;;;1.50;1.20;;;;;;;12.83;88.13;95030.16;6176659;22;20059;-60
2022/09/27 10:34:34;;;;;;;1.10;1.00;;;;;;;12.59;85.96;95031.09;6176618;23;20054;-61
2022/09/27 10:37:06;;;;;;;2.50;1.15;;;;;;;12.45;86.76;95045.81;6175284;23;19997;-69
2022/09/27 10:39:32;;;;;;;1.23;1.10;;;;;;;12.37;87.89;95045.84;6175246;23;20001;-61
2022/09/27 10:41:57;;;;;;;2.65;1.40;;;;;;;12.28;86.31;95039.75;6175765;23;20346;-60
2022/09/27 10:44:28;;;;;;;2.10;1.27;;;;;;;12.08;87.44;95036.69;6175959;23;20051;-60
2022/09/27 10:47:09;;;;;;;2.00;1.17;;;;;;;12.12;90.19;95032.72;6175927;23;20648;-59
2022/09/27 10:49:37;;;;;;;1.95;1.33;;;;;;;12.26;87.44;95031.19;6175277;23;19997;-60
2022/09/27 10:52:07;;;;;;;4.28;1.38;;;;;;;12.41;85.61;95032.16;6176002;23;19997;-59
2022/09/27 10:54:39;;;;;;;1.50;1.40;;;;;;;12.49;84.94;95041.88;6149655;22;20005;-70
2022/09/27 10:57:05;;;;;;;2.03;1.20;;;;;;;12.66;82.99;95040.00;6175341;23;20661;-66
2022/09/27 10:59:39;;;;;;;2.38;1.20;;;;;;;12.61;80.03;95035.22;6175385;23;20475;-67
2022/09/27 11:02:18;;;;;;;2.28;1.15;;;;;;;12.63;82.96;95039.50;6175946;23;20012;-67
2022/09/27 11:05:21;;;;;;;1.00;0.90;;;;;;;12.39;79.02;95051.78;6175779;23;19996;-67
2022/09/27 11:07:55;;;;;;;2.15;1.17;;;;;;;12.06;81.77;95057.94;6154371;23;20328;-67
2022/09/27 11:10:27;;;;;;;1.50;1.30;;;;;;;11.94;84.96;95059.25;6175605;23;20075;-66
2022/09/27 11:13:17;;;;;;;3.22;1.10;;;;;;;11.74;84.22;95054.31;6149375;22;20331;-60
2022/09/27 11:15:58;;;;;;;2.38;1.48;;;;;;;11.42;88.43;95062.03;6176116;23;20004;-67
2022/09/27 11:18:38;;;;;;;1.60;1.10;;;;;;;11.39;88.76;95059.72;6174054;23;20021;-66
2022/09/27 11:21:23;;;;;;;2.00;1.48;;;;;;;11.26;88.92;95075.16;6175628;23;20065;-66
2022/09/27 11:24:23;;;;;;;2.33;1.65;;;;;;;11.18;90.69;95076.81;6175563;23;20001;-67
2022/09/27 11:27:27;;;;;;;1.67;1.55;;;;;;;11.14;89.23;95070.19;6175709;23;20001;-66
2022/09/27 11:30:01;;;;;;;2.58;1.42;;;;;;;11.15;89.67;95082.38;6175335;23;20011;-66
2022/09/27 11:32:48;;;;;;;2.92;1.33;;;;;;;11.25;89.50;95073.53;6148356;23;20025;-62
2022/09/27 11:35:31;;;;;;;1.75;1.30;;;;;;;11.23;87.26;95065.75;6175625;23;20402;-68
2022/09/27 11:38:09;;;;;;;4.90;1.70;;;;;;;11.11;87.56;95070.50;6175845;23;20020;-68
2022/09/27 11:40:43;;;;;;;2.08;1.35;;;;;;;11.25;86.01;95065.63;6176453;23;20011;-69
2022/09/27 11:43:27;;;;;;;1.33;1.10;;;;;;;11.44;86.02;95064.47;6151220;23;20451;-68
2022/09/27 11:45:55;;;;;;;2.72;1.30;;;;;;;11.65;83.50;95066.66;6176748;23;20005;-68
2022/09/27 11:48:38;;;;;;;2.00;1.20;;;;;;;11.83;83.14;95070.97;6176067;23;20474;-69
2022/09/27 11:51:30;;;;;;;3.40;1.83;;;;;;;12.11;81.28;95071.44;6176462;23;20013;-67
2022/09/27 11:54:33;;;;;;;2.72;1.73;;;;;;;12.47;77.75;95075.50;6176745;23;20040;-62
2022/09/27 11:57:46;;;;;;;2.17;1.40;;;;;;;12.66;73.53;95070.84;6176527;23;20001;-64